Main page
METAR-TAF:

METAR-TAF

Airports :

Larestan International Airport

Lar, Iran

latitude: 27-40-26N, longitude: 054-22-53E, elevation: 792 m

Current weather observation

The report was made 1 hour and 52 minutes ago, at 21:00 UTC
Calm wind
Temperature 12°C
Humidity 67%
Pressure 1017 hPa
Visibility 10 km or more
no clouds below 1500 m and no cumulonimbus

METAR: OISL 202100Z 00000KT CAVOK 12/06 Q1017

Time: 02:22 (22:52 UTC)

Forecast

The report was made 5 hours and 12 minutes ago, at 17:40 UTC
Forecast valid from 20 at 18 UTC to 21 at 24 UTC
Wind 10 kt from the West/Southwest
Visibility: 6000 m
Few clouds at a height of 3500 ft
Scattered clouds at a height of 10000 ft
Temporary
from 21 at 08 UTC to 21 at 14 UTC
Few clouds at a height of 3000 ft, Cumulonimbus.
Scattered clouds at a height of 4000 ft
Broken clouds at a height of 10000 ft

TAF: OISL 201740Z 2018/2124 24005MPS 6000 FEW035 SCT100 TEMPO 2108/2114 FEW030CB SCT040 BKN100

Weather observations and forecasts of more than 4000 airports (METAR and TAF reports).

The available stations are represented by yellow and red dots on the map.

Hover mouse over dot to see the name of the station.

Then click to see weather observations and forecasts.

To change the map : click on the green buttons with a black cross to zoom in, on the green button with a dash to zoom out, or on the green arrows for adjacent maps.


METAR-TAF: